createdAt,value
2023-03-06T00:00:14.204Z,4.92
2023-03-06T00:01:14.503Z,4.89
2023-03-06T00:02:14.304Z,4.9
2023-03-06T00:03:14.512Z,4.89
2023-03-06T00:04:14.258Z,4.88
2023-03-06T00:05:14.261Z,4.87
2023-03-06T00:06:14.393Z,4.87
2023-03-06T00:07:16.618Z,4.89
2023-03-06T00:08:14.533Z,4.91
2023-03-06T00:09:14.272Z,4.92
2023-03-06T00:10:15.254Z,4.9
2023-03-06T00:11:14.212Z,4.9
2023-03-06T00:12:14.204Z,4.91
2023-03-06T00:13:14.523Z,4.92
2023-03-06T00:14:14.266Z,4.89
2023-03-06T00:15:14.172Z,4.86
2023-03-06T00:16:14.554Z,4.8
2023-03-06T00:17:14.240Z,4.76
2023-03-06T00:18:18.935Z,4.76
2023-03-06T00:19:14.179Z,4.76
2023-03-06T00:20:14.296Z,4.78
2023-03-06T00:21:14.307Z,4.81
2023-03-06T00:22:14.249Z,4.82
2023-03-06T00:23:14.233Z,4.84
2023-03-06T00:24:14.509Z,4.87
2023-03-06T00:25:14.154Z,4.85
2023-03-06T00:26:14.274Z,4.82
2023-03-06T00:27:14.173Z,4.78
2023-03-06T00:28:14.228Z,4.77
2023-03-06T00:29:16.530Z,4.79
2023-03-06T00:30:14.259Z,4.8
2023-03-06T00:31:14.692Z,4.84
2023-03-06T00:32:14.327Z,4.85
2023-03-06T00:33:14.154Z,4.84
2023-03-06T00:34:14.509Z,4.86
2023-03-06T00:35:14.222Z,4.9
2023-03-06T00:36:14.215Z,4.91
2023-03-06T00:37:14.282Z,4.92
2023-03-06T00:38:14.251Z,4.94
2023-03-06T00:39:14.602Z,4.91
2023-03-06T00:40:19.924Z,4.89
2023-03-06T00:41:14.128Z,4.85
2023-03-06T00:42:14.262Z,4.84
2023-03-06T00:43:14.147Z,4.85
2023-03-06T00:44:14.505Z,4.85
2023-03-06T00:45:14.146Z,4.84
2023-03-06T00:46:14.503Z,4.82
2023-03-06T00:47:14.263Z,4.78
2023-03-06T00:48:14.272Z,4.77
2023-03-06T00:49:14.537Z,4.76
2023-03-06T00:50:14.253Z,4.8
2023-03-06T00:51:16.473Z,4.81
2023-03-06T00:52:14.250Z,4.83
2023-03-06T00:53:14.135Z,4.87
2023-03-06T00:54:14.500Z,4.9
2023-03-06T00:55:14.183Z,4.92
2023-03-06T00:56:14.155Z,4.91
2023-03-06T00:57:14.263Z,4.87
2023-03-06T00:58:14.257Z,4.81
2023-03-06T00:59:14.505Z,4.78
2023-03-06T01:00:14.163Z,4.77
2023-03-06T01:01:14.247Z,4.77
2023-03-06T01:02:19.079Z,4.78
2023-03-06T01:03:14.146Z,4.75
2023-03-06T01:04:14.213Z,4.76
2023-03-06T01:05:14.496Z,4.8
2023-03-06T01:06:14.252Z,4.85
2023-03-06T01:07:14.261Z,4.87
2023-03-06T01:08:14.287Z,4.83
2023-03-06T01:09:14.264Z,4.79
2023-03-06T01:10:15.248Z,4.76
2023-03-06T01:11:14.119Z,4.71
2023-03-06T01:12:14.158Z,4.69
2023-03-06T01:13:16.587Z,4.7
2023-03-06T01:14:14.249Z,4.72
2023-03-06T01:15:14.266Z,4.77
2023-03-06T01:16:14.316Z,4.78
2023-03-06T01:17:14.201Z,4.77
2023-03-06T01:18:14.137Z,4.77
2023-03-06T01:19:14.749Z,4.76
2023-03-06T01:20:14.492Z,4.77
2023-03-06T01:21:14.243Z,4.76
2023-03-06T01:22:14.223Z,4.74
2023-03-06T01:23:14.146Z,4.74
2023-03-06T01:24:16.554Z,4.7
2023-03-06T01:25:14.255Z,4.67
2023-03-06T01:26:14.218Z,4.67
2023-03-06T01:27:14.816Z,4.66
2023-03-06T01:28:14.265Z,4.64
2023-03-06T01:29:14.205Z,4.64
2023-03-06T01:30:14.510Z,4.69
2023-03-06T01:31:14.476Z,4.69
2023-03-06T01:32:14.526Z,4.68
2023-03-06T01:33:14.276Z,4.66
2023-03-06T01:34:14.126Z,4.65
2023-03-06T01:35:19.054Z,4.67
2023-03-06T01:36:14.215Z,4.7
2023-03-06T01:37:14.201Z,4.7
2023-03-06T01:38:14.274Z,4.69
2023-03-06T01:39:14.260Z,4.69
2023-03-06T01:40:14.506Z,4.66
2023-03-06T01:41:14.114Z,4.7
2023-03-06T01:42:14.160Z,4.69
2023-03-06T01:43:14.330Z,4.69
2023-03-06T01:44:14.220Z,4.69
2023-03-06T01:45:14.504Z,4.7
2023-03-06T01:46:16.583Z,4.7
2023-03-06T01:47:14.514Z,4.73
2023-03-06T01:48:14.231Z,4.75
2023-03-06T01:49:14.189Z,4.72
2023-03-06T01:50:14.499Z,4.71
2023-03-06T01:51:14.254Z,4.73
2023-03-06T01:52:14.241Z,4.73
2023-03-06T01:53:14.259Z,4.72
2023-03-06T01:54:14.197Z,4.7
2023-03-06T01:55:14.508Z,4.69
2023-03-06T01:56:14.286Z,4.7
2023-03-06T01:57:16.613Z,4.72
2023-03-06T01:58:14.188Z,4.7
2023-03-06T01:59:14.173Z,4.66
2023-03-06T02:00:14.521Z,4.64
2023-03-06T02:01:14.294Z,4.61
2023-03-06T02:02:14.518Z,4.61
2023-03-06T02:03:14.156Z,4.59
2023-03-06T02:04:14.150Z,4.59
2023-03-06T02:05:14.517Z,4.58
2023-03-06T02:06:14.255Z,4.58
2023-03-06T02:07:14.216Z,4.58
2023-03-06T02:08:16.551Z,4.6
2023-03-06T02:09:14.195Z,4.61
2023-03-06T02:10:14.501Z,4.62
2023-03-06T02:11:14.225Z,4.63
2023-03-06T02:12:14.297Z,4.62
2023-03-06T02:13:14.182Z,4.63
2023-03-06T02:14:14.279Z,4.69
2023-03-06T02:15:14.279Z,4.68
2023-03-06T02:16:14.249Z,4.71
2023-03-06T02:17:14.547Z,4.7
2023-03-06T02:18:14.168Z,4.66
2023-03-06T02:19:16.495Z,4.69
2023-03-06T02:20:14.226Z,4.72
2023-03-06T02:21:14.516Z,4.71
2023-03-06T02:22:14.284Z,4.72
2023-03-06T02:23:14.232Z,4.72
2023-03-06T02:24:14.292Z,4.73
2023-03-06T02:25:14.177Z,4.69
2023-03-06T02:26:14.502Z,4.68
2023-03-06T02:27:14.207Z,4.69
2023-03-06T02:28:14.217Z,4.67
2023-03-06T02:29:14.190Z,4.68
2023-03-06T02:30:16.538Z,4.67
2023-03-06T02:31:14.688Z,4.66
2023-03-06T02:32:14.243Z,4.62
2023-03-06T02:33:14.266Z,4.62
2023-03-06T02:34:14.255Z,4.58
2023-03-06T02:35:14.261Z,4.55
2023-03-06T02:36:14.270Z,4.57
2023-03-06T02:37:14.513Z,4.59
2023-03-06T02:38:14.184Z,4.63
2023-03-06T02:39:14.190Z,4.65
2023-03-06T02:40:14.156Z,4.65
2023-03-06T02:41:16.688Z,4.66
2023-03-06T02:42:14.515Z,4.65
2023-03-06T02:43:14.224Z,4.68
2023-03-06T02:44:14.294Z,4.71
2023-03-06T02:45:14.220Z,4.71
2023-03-06T02:46:14.362Z,4.71
2023-03-06T02:47:14.206Z,4.69
2023-03-06T02:48:14.529Z,4.68
2023-03-06T02:49:14.172Z,4.68
2023-03-06T02:50:14.233Z,4.66
2023-03-06T02:51:14.276Z,4.66
2023-03-06T02:52:16.492Z,4.64
2023-03-06T02:53:14.511Z,4.62
2023-03-06T02:54:14.255Z,4.58
2023-03-06T02:55:14.156Z,4.56
2023-03-06T02:56:14.154Z,4.56
2023-03-06T02:57:14.266Z,4.54
2023-03-06T02:58:14.515Z,4.52
2023-03-06T02:59:14.227Z,4.48
2023-03-06T03:00:14.186Z,4.44
2023-03-06T03:01:14.221Z,4.45
2023-03-06T03:02:14.501Z,4.38
2023-03-06T03:03:18.969Z,4.4
2023-03-06T03:04:14.419Z,4.43
2023-03-06T03:05:14.157Z,4.46
2023-03-06T03:06:14.146Z,4.47
2023-03-06T03:07:14.157Z,4.48
2023-03-06T03:08:14.503Z,4.52
2023-03-06T03:09:14.270Z,4.5
2023-03-06T03:10:14.187Z,4.47
2023-03-06T03:11:14.137Z,4.48
2023-03-06T03:12:14.223Z,4.46
2023-03-06T03:13:14.504Z,4.42
2023-03-06T03:14:16.593Z,4.42
2023-03-06T03:15:14.171Z,4.4
2023-03-06T03:16:14.240Z,4.36
2023-03-06T03:17:14.510Z,4.32
2023-03-06T03:18:14.497Z,4.31
2023-03-06T03:19:14.278Z,4.3
2023-03-06T03:20:14.136Z,4.29
2023-03-06T03:21:14.181Z,4.31
2023-03-06T03:22:14.186Z,4.32
2023-03-06T03:23:14.507Z,4.36
2023-03-06T03:24:14.248Z,4.32
2023-03-06T03:25:16.599Z,4.32
2023-03-06T03:26:14.283Z,4.36
2023-03-06T03:27:14.188Z,4.37
2023-03-06T03:28:14.501Z,4.4
2023-03-06T03:29:14.261Z,4.43
2023-03-06T03:30:14.247Z,4.41
2023-03-06T03:31:14.272Z,4.43
2023-03-06T03:32:14.584Z,4.45
2023-03-06T03:33:14.530Z,4.47
2023-03-06T03:34:14.237Z,4.5
2023-03-06T03:35:14.271Z,4.5
2023-03-06T03:36:16.561Z,4.53
2023-03-06T03:37:14.228Z,4.53
2023-03-06T03:38:14.504Z,4.49
2023-03-06T03:39:14.280Z,4.51
2023-03-06T03:40:15.262Z,4.55
2023-03-06T03:41:14.208Z,4.58
2023-03-06T03:42:14.297Z,4.59
2023-03-06T03:43:14.508Z,4.59
2023-03-06T03:44:14.156Z,4.6
2023-03-06T03:45:14.236Z,4.57
2023-03-06T03:46:14.313Z,4.57
2023-03-06T03:47:18.969Z,4.57
2023-03-06T03:48:14.504Z,4.57
2023-03-06T03:49:14.231Z,4.6
2023-03-06T03:50:14.270Z,4.6
2023-03-06T03:51:14.144Z,4.6
2023-03-06T03:52:14.232Z,4.57
2023-03-06T03:53:14.517Z,4.57
2023-03-06T03:54:14.279Z,4.57
2023-03-06T03:55:14.159Z,4.54
2023-03-06T03:56:14.263Z,4.51
2023-03-06T03:57:14.224Z,4.49
2023-03-06T03:58:18.910Z,4.45
2023-03-06T03:59:14.228Z,4.46
2023-03-06T04:00:14.299Z,4.49
2023-03-06T04:01:14.155Z,4.48
2023-03-06T04:02:14.571Z,4.45
2023-03-06T04:03:14.502Z,4.47
2023-03-06T04:04:14.178Z,4.48
2023-03-06T04:05:14.283Z,4.45
2023-03-06T04:06:14.178Z,4.49
2023-03-06T04:07:14.170Z,4.52
2023-03-06T04:08:14.514Z,4.52
2023-03-06T04:09:16.575Z,4.53
2023-03-06T04:10:15.252Z,4.49
2023-03-06T04:11:14.200Z,4.5
2023-03-06T04:12:14.193Z,4.5
2023-03-06T04:13:14.164Z,4.48
2023-03-06T04:14:14.506Z,4.45
2023-03-06T04:15:14.183Z,4.43
2023-03-06T04:16:14.236Z,4.41
2023-03-06T04:17:14.269Z,4.41
2023-03-06T04:18:14.501Z,4.39
2023-03-06T04:19:14.509Z,4.39
2023-03-06T04:20:16.573Z,4.42
2023-03-06T04:21:14.197Z,4.44
2023-03-06T04:22:14.171Z,4.45
2023-03-06T04:23:14.281Z,4.43
2023-03-06T04:24:14.500Z,4.44
2023-03-06T04:25:14.247Z,4.44
2023-03-06T04:26:14.242Z,4.42
2023-03-06T04:27:14.258Z,4.41
2023-03-06T04:28:14.798Z,4.43
2023-03-06T04:29:14.516Z,4.43
2023-03-06T04:30:15.152Z,4.45
2023-03-06T04:31:16.564Z,4.49
2023-03-06T04:32:14.304Z,4.47
2023-03-06T04:33:14.505Z,4.45
2023-03-06T04:34:14.507Z,4.46
2023-03-06T04:35:14.222Z,4.48
2023-03-06T04:36:14.287Z,4.51
2023-03-06T04:37:14.184Z,4.51
2023-03-06T04:38:14.242Z,4.49
2023-03-06T04:39:14.646Z,4.45
2023-03-06T04:40:14.176Z,4.4
2023-03-06T04:41:14.113Z,4.39
2023-03-06T04:42:16.495Z,4.4
2023-03-06T04:43:14.301Z,4.4
2023-03-06T04:44:14.502Z,4.4
2023-03-06T04:45:14.210Z,4.42
2023-03-06T04:46:14.163Z,4.43
2023-03-06T04:47:14.294Z,4.44
2023-03-06T04:48:14.523Z,4.45
2023-03-06T04:49:14.509Z,4.47
2023-03-06T04:50:14.199Z,4.49
2023-03-06T04:51:14.264Z,4.5
2023-03-06T04:52:14.258Z,4.51
2023-03-06T04:53:16.602Z,4.54
2023-03-06T04:54:14.510Z,4.52
2023-03-06T04:55:14.272Z,4.52
2023-03-06T04:56:14.186Z,4.51
2023-03-06T04:57:14.331Z,4.48
2023-03-06T04:58:14.229Z,4.47
2023-03-06T04:59:14.509Z,4.46
2023-03-06T05:00:14.228Z,4.46
2023-03-06T05:01:14.236Z,4.47
2023-03-06T05:02:14.271Z,4.45
2023-03-06T05:03:14.504Z,4.44
2023-03-06T05:04:18.920Z,4.41
2023-03-06T05:05:14.157Z,4.4
2023-03-06T05:06:14.155Z,4.4
2023-03-06T05:07:14.141Z,4.44
2023-03-06T05:08:14.274Z,4.47
2023-03-06T05:09:14.507Z,4.43
2023-03-06T05:10:15.085Z,4.41
2023-03-06T05:11:14.118Z,4.39
2023-03-06T05:12:14.277Z,4.38
2023-03-06T05:13:14.274Z,4.34
2023-03-06T05:14:14.284Z,4.33
2023-03-06T05:15:16.576Z,4.37
2023-03-06T05:16:14.339Z,4.4
2023-03-06T05:17:14.787Z,4.42
2023-03-06T05:18:14.512Z,4.42
2023-03-06T05:19:14.294Z,4.42
2023-03-06T05:20:14.499Z,4.4
2023-03-06T05:21:14.148Z,4.42
2023-03-06T05:22:14.166Z,4.43
2023-03-06T05:23:14.275Z,4.44
2023-03-06T05:24:14.145Z,4.44
2023-03-06T05:25:14.502Z,4.4
2023-03-06T05:26:16.594Z,4.35
2023-03-06T05:27:16.824Z,4.36
2023-03-06T05:28:14.228Z,4.35
2023-03-06T05:29:14.212Z,4.34
2023-03-06T05:30:14.214Z,4.34
2023-03-06T05:31:14.669Z,4.35
2023-03-06T05:32:14.464Z,4.35
2023-03-06T05:33:14.501Z,4.38
2023-03-06T05:34:14.249Z,4.42
2023-03-06T05:35:14.158Z,4.42
2023-03-06T05:36:14.285Z,4.43
2023-03-06T05:37:16.594Z,4.45
2023-03-06T05:38:14.829Z,4.4
2023-03-06T05:39:14.168Z,4.41
2023-03-06T05:40:14.389Z,4.42
2023-03-06T05:41:14.210Z,4.42
2023-03-06T05:42:14.515Z,4.42
2023-03-06T05:43:14.181Z,4.42
2023-03-06T05:44:14.253Z,4.43
2023-03-06T05:45:14.319Z,4.45
2023-03-06T05:46:14.265Z,4.44
2023-03-06T05:47:14.173Z,4.38
2023-03-06T05:48:17.038Z,4.34
2023-03-06T05:49:14.265Z,4.27
2023-03-06T05:50:14.207Z,4.23
2023-03-06T05:51:14.151Z,4.21
2023-03-06T05:52:14.514Z,4.25
2023-03-06T05:53:14.245Z,4.27
2023-03-06T05:54:14.280Z,4.31
2023-03-06T05:55:14.293Z,4.34
2023-03-06T05:56:14.291Z,4.34
2023-03-06T05:57:14.507Z,4.35
2023-03-06T05:58:14.253Z,4.37
2023-03-06T05:59:16.573Z,4.39
2023-03-06T06:00:14.220Z,4.41
2023-03-06T06:01:14.292Z,4.43
2023-03-06T06:02:14.546Z,4.44
2023-03-06T06:03:14.510Z,4.47
2023-03-06T06:04:14.293Z,4.44
2023-03-06T06:05:14.207Z,4.44
2023-03-06T06:06:14.299Z,4.49
2023-03-06T06:07:14.511Z,4.55
2023-03-06T06:08:14.259Z,4.57
2023-03-06T06:09:14.244Z,4.53
2023-03-06T06:10:19.945Z,4.52
2023-03-06T06:11:14.139Z,4.55
2023-03-06T06:12:14.533Z,4.57
2023-03-06T06:13:14.233Z,4.54
2023-03-06T06:14:14.282Z,4.55
2023-03-06T06:15:14.252Z,4.54
2023-03-06T06:16:14.320Z,4.56
2023-03-06T06:17:14.284Z,4.58
2023-03-06T06:18:14.507Z,4.62
2023-03-06T06:19:14.184Z,4.64
2023-03-06T06:20:14.220Z,4.64
2023-03-06T06:21:16.538Z,4.65
2023-03-06T06:22:14.280Z,4.68
2023-03-06T06:23:14.501Z,4.69
2023-03-06T06:24:14.134Z,4.68
2023-03-06T06:25:14.228Z,4.69
2023-03-06T06:26:14.192Z,4.7
2023-03-06T06:27:14.206Z,4.75
2023-03-06T06:28:14.247Z,4.77
2023-03-06T06:29:14.504Z,4.81
2023-03-06T06:30:14.160Z,4.84
2023-03-06T06:31:14.255Z,4.86
2023-03-06T06:32:16.619Z,4.85
2023-03-06T06:33:14.511Z,4.84
2023-03-06T06:34:14.171Z,4.79
2023-03-06T06:35:14.291Z,4.75
2023-03-06T06:36:14.265Z,4.76
2023-03-06T06:37:14.284Z,4.77
2023-03-06T06:38:14.279Z,4.72
2023-03-06T06:39:14.498Z,4.66
2023-03-06T06:40:15.257Z,4.66
2023-03-06T06:41:42.633Z,4.67
2023-03-06T06:42:29.402Z,4.67
2023-03-06T06:43:16.482Z,4.66
2023-03-06T06:44:14.255Z,4.67
2023-03-06T06:45:14.495Z,4.71
2023-03-06T06:46:49.640Z,4.72
2023-03-06T06:47:24.151Z,4.72
2023-03-06T06:48:16.597Z,4.73
2023-03-06T06:49:14.244Z,4.75
2023-03-06T06:50:14.503Z,4.77
2023-03-06T06:51:14.186Z,4.82
2023-03-06T06:52:14.293Z,4.82
2023-03-06T06:53:14.260Z,4.84
2023-03-06T06:54:16.596Z,4.85
2023-03-06T06:55:14.524Z,4.87
2023-03-06T06:56:14.158Z,4.88
2023-03-06T06:57:14.286Z,4.89
2023-03-06T06:58:14.338Z,4.92
2023-03-06T06:59:17.227Z,4.91
2023-03-06T07:00:14.512Z,4.89
2023-03-06T07:01:14.332Z,4.87
2023-03-06T07:02:14.150Z,4.88
2023-03-06T07:03:14.405Z,4.91
2023-03-06T07:04:14.304Z,4.94
2023-03-06T07:05:20.870Z,4.95
2023-03-06T07:06:14.282Z,4.96
2023-03-06T07:07:14.292Z,4.95
2023-03-06T07:08:14.266Z,4.97
2023-03-06T07:09:14.272Z,5.05
2023-03-06T07:10:14.762Z,5.12
2023-03-06T07:11:14.129Z,5.15
2023-03-06T07:12:14.282Z,5.23
2023-03-06T07:13:14.296Z,5.32
2023-03-06T07:14:14.168Z,5.39
2023-03-06T07:15:14.191Z,5.42
2023-03-06T07:16:19.070Z,5.44
2023-03-06T07:17:14.812Z,5.48
2023-03-06T07:18:14.519Z,5.58
2023-03-06T07:19:14.232Z,5.67
2023-03-06T07:20:14.281Z,5.71
2023-03-06T07:21:14.516Z,5.77
2023-03-06T07:22:14.184Z,5.83
2023-03-06T07:23:14.208Z,5.84
2023-03-06T07:24:14.264Z,5.8
2023-03-06T07:25:14.280Z,5.87
2023-03-06T07:26:14.789Z,5.93
2023-03-06T07:27:16.474Z,5.98
2023-03-06T07:28:14.229Z,6.08
2023-03-06T07:29:14.133Z,6.2
2023-03-06T07:30:14.295Z,6.24
2023-03-06T07:31:14.731Z,6.25
2023-03-06T07:32:14.355Z,6.26
2023-03-06T07:33:14.299Z,6.28
2023-03-06T07:34:14.540Z,6.31
2023-03-06T07:35:20.081Z,6.33
2023-03-06T07:36:14.291Z,6.38
2023-03-06T07:37:14.292Z,6.45
2023-03-06T07:38:16.625Z,6.55
2023-03-06T07:39:14.227Z,6.6
2023-03-06T07:40:15.147Z,6.63
2023-03-06T07:41:14.203Z,6.67
2023-03-06T07:42:14.130Z,6.71
2023-03-06T07:43:19.393Z,6.74
2023-03-06T07:44:14.162Z,6.85
2023-03-06T07:45:14.168Z,7
2023-03-06T07:46:14.369Z,7.06
2023-03-06T07:47:14.286Z,7.02
2023-03-06T07:48:14.299Z,7.07
2023-03-06T07:49:16.542Z,7.14
2023-03-06T07:50:14.251Z,7.2
2023-03-06T07:51:14.292Z,7.26
2023-03-06T07:52:14.508Z,7.41
2023-03-06T07:53:14.267Z,7.45
2023-03-06T07:54:14.185Z,7.51
2023-03-06T07:55:14.228Z,7.5
2023-03-06T07:56:14.215Z,7.52
2023-03-06T07:57:14.531Z,7.53
2023-03-06T07:58:14.170Z,7.48
2023-03-06T07:59:14.181Z,7.43
2023-03-06T08:00:16.496Z,7.45
2023-03-06T08:01:14.233Z,7.5
2023-03-06T08:02:14.249Z,7.53
2023-03-06T08:03:14.533Z,7.53
2023-03-06T08:04:14.604Z,7.5
2023-03-06T08:05:14.226Z,7.52
2023-03-06T08:06:14.314Z,7.48
2023-03-06T08:07:14.218Z,7.46
2023-03-06T08:08:14.512Z,7.39
2023-03-06T08:09:14.244Z,7.32
2023-03-06T08:10:15.263Z,7.29
2023-03-06T08:11:16.690Z,7.26
2023-03-06T08:12:15.775Z,7.23
2023-03-06T08:13:14.311Z,7.3
2023-03-06T08:14:14.258Z,7.4
2023-03-06T08:15:14.268Z,7.49
2023-03-06T08:16:14.239Z,7.5
2023-03-06T08:17:14.158Z,7.46
2023-03-06T08:18:14.192Z,7.32
2023-03-06T08:19:14.521Z,7.19
2023-03-06T08:20:14.243Z,7.1
2023-03-06T08:21:14.271Z,7.08
2023-03-06T08:22:16.449Z,7.02
2023-03-06T08:23:14.261Z,7.03
2023-03-06T08:24:14.516Z,7.03
2023-03-06T08:25:14.300Z,6.98
2023-03-06T08:26:14.149Z,7.01
2023-03-06T08:27:14.268Z,6.93
2023-03-06T08:28:14.290Z,6.97
2023-03-06T08:29:14.281Z,7.03
2023-03-06T08:30:14.707Z,7.08
2023-03-06T08:31:14.321Z,7.16
2023-03-06T08:32:14.183Z,7.2
2023-03-06T08:33:16.532Z,7.29
2023-03-06T08:34:14.280Z,7.27
2023-03-06T08:35:14.189Z,7.24
2023-03-06T08:36:14.235Z,7.24
2023-03-06T08:37:14.227Z,7.41
2023-03-06T08:38:14.266Z,7.5
2023-03-06T08:39:14.287Z,7.46
2023-03-06T08:40:15.257Z,7.39
2023-03-06T08:41:14.214Z,7.47
2023-03-06T08:42:14.121Z,7.56
2023-03-06T08:43:14.443Z,7.66
2023-03-06T08:44:16.520Z,7.6
2023-03-06T08:45:14.556Z,7.55
2023-03-06T08:46:14.281Z,7.5
2023-03-06T08:47:14.241Z,7.52
2023-03-06T08:48:14.267Z,7.59
2023-03-06T08:49:14.516Z,7.66
2023-03-06T08:50:14.292Z,7.77
2023-03-06T08:51:14.513Z,7.8
2023-03-06T08:52:14.277Z,7.8
2023-03-06T08:53:14.205Z,7.77
2023-03-06T08:54:14.262Z,7.79
2023-03-06T08:55:16.538Z,7.92
2023-03-06T08:56:14.239Z,7.95
2023-03-06T08:57:14.204Z,7.89
2023-03-06T08:58:14.241Z,7.67
2023-03-06T08:59:14.293Z,7.59
2023-03-06T09:00:14.334Z,7.69
2023-03-06T09:01:14.524Z,7.77
2023-03-06T09:02:14.302Z,7.76
2023-03-06T09:03:14.268Z,7.79
2023-03-06T09:04:14.280Z,7.89
2023-03-06T09:05:14.521Z,7.95
2023-03-06T09:06:18.985Z,8.06
2023-03-06T09:07:14.224Z,8.04
2023-03-06T09:08:14.267Z,7.99
2023-03-06T09:09:14.184Z,7.98
2023-03-06T09:10:14.268Z,8.01
2023-03-06T09:11:14.516Z,7.93
2023-03-06T09:12:14.211Z,7.81
2023-03-06T09:13:14.280Z,7.87
2023-03-06T09:14:14.175Z,8.01
2023-03-06T09:15:14.206Z,8.04
2023-03-06T09:16:14.638Z,8.2
2023-03-06T09:17:16.612Z,8.52
2023-03-06T09:18:14.263Z,8.8
2023-03-06T09:19:14.252Z,9.05
2023-03-06T09:20:14.510Z,9.37
2023-03-06T09:21:14.506Z,9.47
2023-03-06T09:22:14.154Z,9.6
2023-03-06T09:23:14.267Z,9.67
2023-03-06T09:24:14.266Z,9.85
2023-03-06T09:25:14.251Z,9.83
2023-03-06T09:26:14.527Z,9.74
2023-03-06T09:27:14.155Z,9.49
2023-03-06T09:28:16.568Z,9.24
2023-03-06T09:29:14.296Z,9.1
2023-03-06T09:30:14.231Z,8.93
2023-03-06T09:31:14.351Z,8.68
2023-03-06T09:32:14.374Z,8.64
2023-03-06T09:33:14.175Z,8.63
2023-03-06T09:34:14.223Z,8.5
2023-03-06T09:35:14.287Z,8.42
2023-03-06T09:36:14.272Z,8.29
2023-03-06T09:37:15.773Z,8.12
2023-03-06T09:38:14.164Z,7.98
2023-03-06T09:39:16.609Z,7.81
2023-03-06T09:40:15.263Z,7.69
2023-03-06T09:41:14.145Z,7.72
2023-03-06T09:42:14.204Z,7.68
2023-03-06T09:43:14.254Z,7.83
2023-03-06T09:44:14.231Z,7.95
2023-03-06T09:45:14.262Z,8.01
2023-03-06T09:46:14.622Z,8.1
2023-03-06T09:47:14.167Z,8.17
2023-03-06T09:48:14.291Z,8.19
2023-03-06T09:49:14.173Z,8.2
2023-03-06T09:50:16.561Z,8.2
2023-03-06T09:51:14.190Z,8.08
2023-03-06T09:52:14.243Z,7.96
2023-03-06T09:53:14.276Z,7.96
2023-03-06T09:54:14.246Z,7.99
2023-03-06T09:55:14.275Z,8.04
2023-03-06T09:56:14.265Z,8.04
2023-03-06T09:57:14.267Z,8.09
2023-03-06T09:58:14.261Z,8.2
2023-03-06T09:59:14.171Z,8.31
2023-03-06T10:00:14.283Z,8.4
2023-03-06T10:01:16.612Z,8.53
2023-03-06T10:02:14.430Z,8.52
2023-03-06T10:03:14.388Z,8.58
2023-03-06T10:04:14.285Z,8.67
2023-03-06T10:05:14.328Z,8.66
2023-03-06T10:06:14.514Z,8.67
2023-03-06T10:07:14.226Z,8.58
2023-03-06T10:08:14.293Z,8.58
2023-03-06T10:09:14.251Z,8.49
2023-03-06T10:10:14.320Z,8.41
2023-03-06T10:11:14.563Z,8.41
2023-03-06T10:12:16.466Z,8.38
2023-03-06T10:13:14.221Z,8.29
2023-03-06T10:14:14.250Z,8.11
2023-03-06T10:15:14.251Z,8.06
2023-03-06T10:16:14.539Z,7.95
2023-03-06T10:17:14.271Z,7.79
2023-03-06T10:18:14.281Z,7.54
2023-03-06T10:19:14.275Z,7.35
2023-03-06T10:20:14.298Z,7.15
2023-03-06T10:21:19.278Z,7.04
2023-03-06T10:22:14.259Z,7.11
2023-03-06T10:23:16.572Z,7.08
2023-03-06T10:31:28.968Z,8.05
2023-03-06T10:32:34.244Z,8.12
2023-03-06T10:33:28.393Z,8.17
2023-03-06T10:34:29.081Z,8.31
2023-03-06T10:35:30.431Z,8.49
2023-03-06T10:36:30.760Z,8.55
2023-03-06T10:37:28.405Z,8.61
2023-03-06T10:38:28.406Z,8.74
2023-03-06T10:39:28.497Z,8.91
2023-03-06T10:40:28.807Z,9.14
2023-03-06T10:41:28.386Z,9.45
2023-03-06T10:42:28.970Z,9.62
2023-03-06T10:43:28.405Z,9.85
2023-03-06T10:44:28.383Z,10.25
2023-03-06T10:45:29.922Z,10.59
2023-03-06T10:46:28.577Z,10.95
2023-03-06T10:47:30.781Z,11.06
2023-03-06T10:48:28.400Z,11.25
2023-03-06T10:49:28.541Z,11.5
2023-03-06T10:50:28.801Z,11.32
2023-03-06T10:51:28.400Z,11.02
2023-03-06T10:52:28.395Z,10.73
2023-03-06T10:53:28.399Z,10.51
2023-03-06T10:54:28.385Z,10.36
2023-03-06T10:55:28.507Z,10.12
2023-03-06T10:56:28.385Z,10.03
2023-03-06T10:57:28.440Z,9.93
2023-03-06T10:58:30.729Z,9.97
2023-03-06T10:59:28.427Z,9.92
2023-03-06T11:00:28.499Z,9.88
2023-03-06T11:01:28.531Z,9.82
2023-03-06T11:02:28.415Z,9.73
2023-03-06T11:03:28.505Z,9.62
2023-03-06T11:04:28.416Z,9.54
2023-03-06T11:05:28.432Z,9.34
2023-03-06T11:06:28.529Z,9.04
2023-03-06T11:07:28.525Z,8.86
2023-03-06T11:08:28.390Z,8.54
2023-03-06T11:09:30.761Z,8.38
2023-03-06T11:10:28.529Z,8.4
2023-03-06T11:11:37.188Z,8.43
2023-03-06T11:12:28.424Z,8.59
2023-03-06T11:13:28.435Z,8.73
2023-03-06T11:14:28.399Z,8.69
2023-03-06T11:15:28.427Z,8.53
2023-03-06T11:16:28.614Z,8.23
2023-03-06T11:17:28.385Z,8.08
2023-03-06T11:18:28.392Z,8.12
2023-03-06T11:19:28.410Z,8.4
2023-03-06T11:20:44.663Z,8.6
2023-03-06T11:21:31.291Z,8.81
2023-03-06T11:22:28.385Z,9.03
2023-03-06T11:23:28.373Z,9.33
2023-03-06T11:24:28.391Z,9.68
2023-03-06T11:25:28.834Z,9.73
2023-03-06T11:26:28.396Z,9.78
2023-03-06T11:27:28.377Z,10
2023-03-06T11:28:28.393Z,10.15
2023-03-06T11:29:29.379Z,10.28
2023-03-06T11:30:28.825Z,10.48
2023-03-06T11:31:30.786Z,10.54
2023-03-06T11:32:28.489Z,10.75
2023-03-06T11:33:28.409Z,11.04
2023-03-06T11:34:28.384Z,11.12
2023-03-06T11:35:28.848Z,11.2
2023-03-06T11:36:28.398Z,11.05
2023-03-06T11:37:28.386Z,11.08
2023-03-06T11:38:28.396Z,10.99
2023-03-06T11:39:28.390Z,10.82
2023-03-06T11:40:28.815Z,10.59
2023-03-06T11:41:28.346Z,10.4
2023-03-06T11:42:30.728Z,10.32
2023-03-06T11:43:28.393Z,10.14
2023-03-06T11:44:28.517Z,10.09
2023-03-06T11:45:28.551Z,10.01
2023-03-06T11:46:28.578Z,9.95
2023-03-06T11:47:28.376Z,9.86
2023-03-06T11:48:28.391Z,9.79
2023-03-06T11:49:28.372Z,9.71
2023-03-06T11:50:28.426Z,9.66
2023-03-06T11:51:28.795Z,9.62
2023-03-06T11:52:28.375Z,9.62
2023-03-06T11:53:30.746Z,9.6
2023-03-06T11:54:28.398Z,9.62
2023-03-06T11:55:28.499Z,9.63
2023-03-06T11:56:31.139Z,9.61
2023-03-06T11:57:28.536Z,9.62
2023-03-06T11:58:28.398Z,9.52
2023-03-06T11:59:28.392Z,9.55
2023-03-06T12:00:28.823Z,9.58
2023-03-06T12:01:28.420Z,9.51
2023-03-06T12:02:28.428Z,9.36
2023-03-06T12:03:28.390Z,9.25
2023-03-06T12:04:30.739Z,9.21
2023-03-06T12:05:28.849Z,9.24
2023-03-06T12:06:28.485Z,9.33
2023-03-06T12:07:28.367Z,9.35
2023-03-06T12:08:28.383Z,9.34
2023-03-06T12:09:28.398Z,9.26
2023-03-06T12:10:28.803Z,9.18
2023-03-06T12:11:29.692Z,9.18
2023-03-06T12:12:28.394Z,9.2
2023-03-06T12:13:28.416Z,9.32
2023-03-06T12:14:28.394Z,9.38
2023-03-06T12:15:33.174Z,9.45
2023-03-06T12:16:28.424Z,9.45
2023-03-06T12:17:28.392Z,9.3
2023-03-06T12:18:28.390Z,9.31
2023-03-06T12:19:28.360Z,9.28
2023-03-06T12:20:28.803Z,9.42
2023-03-06T12:21:28.810Z,9.45
2023-03-06T12:22:30.791Z,9.43
2023-03-06T12:23:28.382Z,9.4
2023-03-06T12:24:28.385Z,9.46
2023-03-06T12:25:28.799Z,9.44
2023-03-06T12:26:30.718Z,9.34
2023-03-06T12:27:28.381Z,9.39
2023-03-06T12:28:28.377Z,9.44
2023-03-06T12:29:28.386Z,9.41
2023-03-06T12:30:28.801Z,9.38
2023-03-06T12:31:28.554Z,9.36
2023-03-06T12:32:28.469Z,9.33
2023-03-06T12:33:28.381Z,9.19
2023-03-06T12:34:28.482Z,9.14
2023-03-06T12:35:28.916Z,9.01
2023-03-06T12:36:28.950Z,9.04
2023-03-06T12:37:30.868Z,9.03
2023-03-06T12:38:28.457Z,9.02
2023-03-06T12:39:28.515Z,9.12
2023-03-06T12:40:28.796Z,9.26
2023-03-06T12:41:28.350Z,9.42
2023-03-06T12:42:28.389Z,9.72
2023-03-06T12:43:28.376Z,10.02
2023-03-06T12:44:28.385Z,10.18
2023-03-06T12:45:28.798Z,10.11
2023-03-06T12:46:28.379Z,9.9
2023-03-06T12:47:28.382Z,9.66
2023-03-06T12:48:30.749Z,9.39
2023-03-06T12:49:32.316Z,9.18
2023-03-06T12:50:28.814Z,9.03
2023-03-06T12:51:28.809Z,9
2023-03-06T12:52:30.572Z,8.93
2023-03-06T12:53:28.409Z,8.79
2023-03-06T12:54:28.492Z,8.68
2023-03-06T12:55:28.820Z,8.62
2023-03-06T12:56:28.521Z,8.66
2023-03-06T12:57:28.392Z,8.74
2023-03-06T12:58:28.396Z,8.86
2023-03-06T12:59:30.711Z,8.94
2023-03-06T13:00:28.799Z,8.98
2023-03-06T13:01:28.421Z,9.06
2023-03-06T13:02:28.443Z,9.14
2023-03-06T13:03:28.386Z,9.1
2023-03-06T13:04:28.397Z,9.04
2023-03-06T13:05:28.814Z,9.06
2023-03-06T13:06:29.791Z,9.03
2023-03-06T13:07:28.380Z,9.05
2023-03-06T13:08:28.381Z,8.93
2023-03-06T13:09:28.545Z,8.81
2023-03-06T13:10:33.177Z,8.61
2023-03-06T13:11:28.353Z,8.57
2023-03-06T13:12:28.522Z,8.61
2023-03-06T13:13:28.394Z,8.64
2023-03-06T13:14:28.382Z,8.68
2023-03-06T13:15:28.807Z,8.69
2023-03-06T13:16:28.438Z,8.74
2023-03-06T13:17:28.374Z,8.86
2023-03-06T13:18:28.408Z,8.98
2023-03-06T13:19:28.391Z,9.11
2023-03-06T13:20:28.828Z,9.33
2023-03-06T13:21:33.207Z,9.43
2023-03-06T13:22:28.379Z,9.53
2023-03-06T13:23:28.409Z,9.66
2023-03-06T13:24:28.399Z,9.86
2023-03-06T13:25:28.929Z,10
2023-03-06T13:26:28.618Z,10.14
2023-03-06T13:27:28.387Z,10.26